Time;durP1;ratioP1;P1;durP2;ratioP2;P2;SDS_P1;SDS_P2;PMS_P1;PMS_P2;Temp;Humidity;BMP_temperature;BMP_pressure;BME280_temperature;BME280_humidity;BME280_pressure;Samples;Min_cycle;Max_cycle;Signal;HPM_P1;HPM_P2
2022/06/23 00:01:46;;;;;;;6.78;4.60;;;19.30;99.90;;;;;;5033290;28;20207;-74
2022/06/23 00:04:14;;;;;;;6.25;4.38;;;19.40;99.90;;;;;;5039444;28;20207;-74
2022/06/23 00:06:42;;;;;;;9.05;4.40;;;19.50;99.90;;;;;;5043542;28;20221;-74
2022/06/23 00:09:27;;;;;;;6.70;4.78;;;19.40;99.90;;;;;;5042688;28;20205;-74
2022/06/23 00:11:52;;;;;;;8.52;4.97;;;19.40;99.90;;;;;;5038493;28;20212;-74
2022/06/23 00:14:18;;;;;;;7.55;4.50;;;19.40;99.90;;;;;;5042841;28;20208;-74
2022/06/23 00:16:44;;;;;;;9.52;5.35;;;19.30;99.90;;;;;;5051529;28;20226;-74
2022/06/23 00:19:14;;;;;;;7.15;4.80;;;19.20;99.90;;;;;;5048037;28;20169;-74
2022/06/23 00:21:44;;;;;;;9.02;5.00;;;19.20;99.90;;;;;;5037030;28;20672;-74
2022/06/23 00:24:19;;;;;;;8.73;4.38;;;19.20;99.90;;;;;;5047192;28;20220;-74
2022/06/23 00:26:45;;;;;;;6.20;4.60;;;19.20;99.90;;;;;;5044531;28;20866;-74
2022/06/23 00:29:15;;;;;;;8.13;4.55;;;19.30;99.90;;;;;;5047151;28;20298;-74
2022/06/23 00:31:56;;;;;;;6.85;4.50;;;19.30;99.90;;;;;;5043540;28;20216;-74
2022/06/23 00:34:23;;;;;;;8.48;4.70;;;19.20;99.90;;;;;;5048858;28;20220;-74
2022/06/23 00:36:50;;;;;;;6.85;5.03;;;19.10;99.90;;;;;;5047180;28;20187;-73
2022/06/23 00:39:35;;;;;;;8.07;5.15;;;19.00;99.90;;;;;;5042769;28;20334;-74
2022/06/23 00:42:06;;;;;;;5.05;4.55;;;19.00;99.90;;;;;;5034908;28;20208;-74
2022/06/23 00:44:40;;;;;;;6.50;4.65;;;18.90;99.90;;;;;;5044143;28;20310;-74
2022/06/23 00:47:12;;;;;;;8.27;4.97;;;18.90;99.90;;;;;;5047118;28;20206;-73
2022/06/23 00:50:24;;;;;;;7.30;5.47;;;18.90;99.90;;;;;;5042790;28;20208;-74
2022/06/23 00:53:04;;;;;;;7.05;4.10;;;18.90;99.90;;;;;;5023193;28;20226;-74
2022/06/23 00:55:35;;;;;;;6.18;4.80;;;18.80;99.90;;;;;;5041432;28;20740;-74
2022/06/23 00:58:26;;;;;;;8.30;4.60;;;18.80;99.90;;;;;;5046677;28;20222;-73
2022/06/23 01:00:59;;;;;;;7.88;4.38;;;18.90;99.90;;;;;;5007806;28;20192;-74
2022/06/23 01:03:34;;;;;;;7.13;4.55;;;18.80;99.90;;;;;;5044351;28;20247;-75
2022/06/23 01:06:14;;;;;;;9.15;5.47;;;18.80;99.90;;;;;;5043331;28;20207;-73
2022/06/23 01:08:55;;;;;;;7.60;5.03;;;18.80;99.90;;;;;;5045197;28;20207;-74
2022/06/23 01:11:44;;;;;;;9.05;5.43;;;18.80;99.90;;;;;;5046517;28;20246;-71
2022/06/23 01:14:25;;;;;;;6.47;4.72;;;18.70;99.90;;;;;;5043038;28;20204;-74
2022/06/23 01:17:00;;;;;;;7.45;4.88;;;18.70;99.90;;;;;;5036088;28;20218;-75
2022/06/23 01:19:53;;;;;;;7.60;5.07;;;18.70;99.90;;;;;;5042896;28;20257;-74
2022/06/23 01:22:47;;;;;;;6.35;4.70;;;18.70;99.90;;;;;;5033194;28;20616;-75
2022/06/23 01:25:45;;;;;;;7.72;4.45;;;18.70;99.90;;;;;;5037848;28;20200;-73
2022/06/23 01:28:18;;;;;;;11.30;4.55;;;18.70;99.90;;;;;;4989312;28;20225;-74
2022/06/23 01:31:04;;;;;;;6.13;4.35;;;18.60;99.90;;;;;;5046405;28;20198;-74
2022/06/23 01:33:45;;;;;;;6.25;5.05;;;18.60;99.90;;;;;;5034447;28;20211;-74
2022/06/23 01:36:25;;;;;;;7.57;4.50;;;18.60;99.90;;;;;;5044430;28;20693;-74
2022/06/23 01:39:05;;;;;;;6.22;4.63;;;18.60;99.90;;;;;;5026619;28;20203;-74
2022/06/23 01:41:42;;;;;;;9.27;4.85;;;18.60;99.90;;;;;;5044459;28;20227;-74
2022/06/23 01:44:14;;;;;;;8.45;5.00;;;18.50;99.90;;;;;;5044045;28;20207;-74
2022/06/23 01:46:42;;;;;;;8.00;4.80;;;18.60;99.90;;;;;;5046198;28;20208;-74
2022/06/23 01:49:16;;;;;;;6.43;4.60;;;18.60;99.90;;;;;;5044285;28;20226;-74
2022/06/23 01:51:52;;;;;;;10.32;4.95;;;18.60;99.90;;;;;;5041121;28;20616;-74
2022/06/23 01:54:21;;;;;;;9.10;4.95;;;18.50;99.90;;;;;;5045308;28;20671;-74
2022/06/23 01:57:03;;;;;;;7.28;4.75;;;18.50;99.90;;;;;;5041236;28;20199;-74
2022/06/23 01:59:41;;;;;;;8.25;4.85;;;18.50;99.90;;;;;;5045993;28;20208;-74
2022/06/23 02:02:25;;;;;;;7.13;4.45;;;18.50;99.90;;;;;;5038887;28;20815;-74
2022/06/23 02:05:05;;;;;;;4.80;4.28;;;18.60;99.90;;;;;;5045249;28;20211;-74
2022/06/23 02:07:43;;;;;;;8.55;5.18;;;18.60;99.90;;;;;;5042216;28;20242;-74
2022/06/23 02:10:20;;;;;;;6.13;4.57;;;18.70;99.90;;;;;;5043749;28;20186;-74
2022/06/23 02:13:17;;;;;;;7.20;4.65;;;18.70;99.90;;;;;;5031338;28;20668;-74
2022/06/23 02:16:02;;;;;;;6.88;4.93;;;18.60;99.90;;;;;;5045083;28;20207;-74
2022/06/23 02:18:58;;;;;;;7.55;4.78;;;18.50;99.90;;;;;;5047657;28;20227;-73
2022/06/23 02:21:44;;;;;;;8.30;4.88;;;18.30;99.90;;;;;;5029837;28;20208;-75
2022/06/23 02:24:21;;;;;;;8.15;5.03;;;18.40;99.90;;;;;;5046947;28;20211;-74
2022/06/23 02:27:11;;;;;;;5.95;4.10;;;18.30;99.90;;;;;;5030114;28;20203;-75
2022/06/23 02:29:57;;;;;;;9.23;5.30;;;18.40;99.90;;;;;;5049276;28;20203;-73
2022/06/23 02:32:50;;;;;;;11.45;5.47;;;18.60;99.90;;;;;;5046837;28;20262;-73
2022/06/23 02:35:45;;;;;;;11.68;5.68;;;18.60;99.90;;;;;;5050104;28;20212;-75
2022/06/23 02:38:17;;;;;;;8.40;5.03;;;18.40;99.90;;;;;;5038272;28;20212;-74
2022/06/23 02:40:51;;;;;;;6.63;4.93;;;18.30;99.90;;;;;;5051927;28;20204;-74
2022/06/23 02:43:26;;;;;;;7.82;4.80;;;18.50;99.90;;;;;;5038684;28;20180;-74
2022/06/23 02:45:58;;;;;;;7.28;4.93;;;18.60;99.90;;;;;;5040475;28;20183;-74
2022/06/23 02:48:34;;;;;;;7.60;5.35;;;18.60;99.90;;;;;;5023754;28;20707;-74
2022/06/23 02:51:41;;;;;;;11.75;6.45;;;18.50;99.90;;;;;;5033701;28;20681;-74
2022/06/23 02:54:14;;;;;;;8.68;5.65;;;18.50;99.90;;;;;;5028186;28;20218;-74
2022/06/23 02:56:45;;;;;;;8.13;6.53;;;18.60;99.90;;;;;;5031671;28;20212;-74
2022/06/23 03:01:57;;;;;;;11.75;7.57;;;18.70;99.90;;;;;;5030239;28;20231;-72
2022/06/23 03:04:29;;;;;;;10.50;5.68;;;18.80;99.90;;;;;;5033407;28;20214;-73
2022/06/23 03:07:08;;;;;;;12.18;5.93;;;18.80;99.90;;;;;;5033980;28;20176;-73
2022/06/23 03:09:41;;;;;;;10.43;6.28;;;18.70;99.90;;;;;;5033898;28;20274;-73
2022/06/23 03:12:11;;;;;;;9.23;5.70;;;18.80;99.90;;;;;;5031545;28;20232;-73
2022/06/23 03:15:01;;;;;;;7.03;5.65;;;18.80;99.90;;;;;;5033113;28;20751;-74
2022/06/23 03:17:50;;;;;;;11.23;6.05;;;18.80;99.90;;;;;;5031925;28;20693;-76
2022/06/23 03:20:22;;;;;;;10.20;6.00;;;18.90;99.90;;;;;;4989199;28;20870;-74
2022/06/23 03:23:01;;;;;;;8.57;5.47;;;18.70;99.90;;;;;;5032535;28;20685;-75
2022/06/23 03:25:47;;;;;;;8.35;5.53;;;19.10;99.90;;;;;;5032112;28;20207;-74
2022/06/23 03:28:22;;;;;;;7.18;5.72;;;20.90;99.90;;;;;;5028791;28;20250;-73
2022/06/23 03:31:07;;;;;;;7.13;4.70;;;21.90;99.90;;;;;;5028491;28;20196;-72
2022/06/23 03:33:41;;;;;;;9.52;5.15;;;23.30;99.90;;;;;;5033732;28;20339;-73
2022/06/23 03:36:24;;;;;;;7.50;4.75;;;24.00;99.90;;;;;;5030154;28;20207;-73
2022/06/23 03:41:50;;;;;;;7.95;4.50;;;25.40;99.90;;;;;;5032154;28;20230;-71
2022/06/23 03:44:42;;;;;;;5.68;4.32;;;25.30;99.90;;;;;;5032697;28;20616;-71
2022/06/23 03:47:42;;;;;;;6.03;4.43;;;26.00;99.90;;;;;;5027368;28;20724;-71
2022/06/23 03:50:29;;;;;;;6.07;4.05;;;26.60;99.90;;;;;;5007126;28;20235;-71
2022/06/23 03:53:03;;;;;;;4.75;3.75;;;26.70;99.90;;;;;;5027946;28;20240;-71
2022/06/23 03:55:44;;;;;;;6.85;5.00;;;27.20;99.90;;;;;;5032430;28;20295;-72
2022/06/23 03:58:18;;;;;;;6.93;4.07;;;27.70;99.90;;;;;;5032240;28;20189;-71
2022/06/23 04:01:00;;;;;;;7.28;5.13;;;27.80;99.90;;;;;;5032501;28;20212;-72
2022/06/23 04:03:58;;;;;;;7.20;3.90;;;27.40;99.90;;;;;;5030777;28;20211;-72
2022/06/23 04:06:32;;;;;;;3.95;2.90;;;28.10;99.90;;;;;;4975507;28;20295;-72
2022/06/23 04:09:06;;;;;;;7.40;4.40;;;28.60;99.90;;;;;;5031971;28;20200;-72
2022/06/23 04:12:03;;;;;;;6.35;3.60;;;29.30;99.90;;;;;;5031993;28;20293;-73
2022/06/23 04:14:37;;;;;;;4.72;3.30;;;29.00;99.90;;;;;;5028295;28;20235;-72
2022/06/23 04:17:34;;;;;;;5.90;4.10;;;30.20;99.90;;;;;;5032062;28;20287;-71
2022/06/23 04:20:16;;;;;;;4.10;3.42;;;29.60;99.90;;;;;;5030539;28;20240;-71
2022/06/23 04:22:58;;;;;;;4.57;3.50;;;30.10;99.90;;;;;;5031573;28;20244;-72
2022/06/23 04:26:00;;;;;;;6.03;3.55;;;31.10;99.90;;;;;;5031771;28;20212;-72
2022/06/23 04:28:33;;;;;;;6.38;3.30;;;32.00;97.70;;;;;;5028729;28;20227;-72
2022/06/23 04:31:01;;;;;;;3.55;3.20;;;31.60;97.20;;;;;;5030355;28;20477;-71
2022/06/23 04:33:28;;;;;;;5.10;3.03;;;31.00;96.50;;;;;;5031796;28;20176;-71
2022/06/23 04:35:58;;;;;;;4.40;3.13;;;31.00;96.40;;;;;;5031609;28;20223;-72
2022/06/23 04:38:37;;;;;;;4.32;3.50;;;30.90;96.70;;;;;;5029807;28;20222;-71
2022/06/23 04:41:22;;;;;;;5.32;3.80;;;31.30;96.10;;;;;;5031175;28;20212;-72
2022/06/23 04:43:47;;;;;;;5.60;2.97;;;31.20;95.10;;;;;;5023620;28;20211;-71
2022/06/23 04:46:35;;;;;;;4.68;3.10;;;31.60;94.30;;;;;;5031259;28;20649;-71
2022/06/23 04:49:14;;;;;;;5.57;3.20;;;32.40;93.70;;;;;;5029480;28;20238;-71
2022/06/23 04:51:51;;;;;;;4.88;3.17;;;31.80;93.60;;;;;;5031487;28;20223;-71
2022/06/23 04:54:25;;;;;;;5.10;3.03;;;33.00;92.70;;;;;;5031389;28;20750;-72
2022/06/23 04:57:09;;;;;;;4.57;2.88;;;33.50;91.10;;;;;;5028936;28;20208;-72
2022/06/23 04:59:48;;;;;;;4.28;2.95;;;32.40;91.20;;;;;;5029203;28;20291;-72
2022/06/23 05:02:29;;;;;;;6.75;3.60;;;33.10;90.70;;;;;;5031545;28;20246;-71
2022/06/23 05:05:18;;;;;;;8.52;5.53;;;34.00;89.90;;;;;;5027331;28;20713;-71
2022/06/23 05:07:55;;;;;;;6.07;4.25;;;34.10;88.80;;;;;;5030842;28;20286;-72
2022/06/23 05:10:23;;;;;;;8.18;4.05;;;34.00;86.50;;;;;;5030805;28;20211;-71
2022/06/23 05:12:57;;;;;;;5.13;3.03;;;33.70;84.80;;;;;;5031581;28;20203;-72
2022/06/23 05:15:43;;;;;;;4.32;2.70;;;33.10;86.30;;;;;;5031051;28;20215;-72
2022/06/23 05:18:17;;;;;;;4.97;2.85;;;34.40;84.00;;;;;;5029613;28;20215;-72
2022/06/23 05:21:04;;;;;;;4.80;3.30;;;33.80;83.80;;;;;;5030712;28;20683;-71
2022/06/23 05:24:02;;;;;;;3.92;2.90;;;33.20;84.70;;;;;;5031120;28;20204;-71
2022/06/23 05:26:39;;;;;;;6.40;3.30;;;33.60;84.80;;;;;;5039594;28;20211;-71
2022/06/23 05:29:17;;;;;;;5.40;3.17;;;33.80;84.50;;;;;;5030490;28;20699;-72
2022/06/23 05:31:45;;;;;;;6.93;5.07;;;34.00;82.00;;;;;;5030282;28;20242;-71
2022/06/23 05:34:22;;;;;;;7.20;3.70;;;33.30;82.20;;;;;;5030900;28;20318;-71
2022/06/23 05:37:10;;;;;;;6.75;3.50;;;33.10;82.10;;;;;;5023245;28;20179;-72
2022/06/23 05:39:39;;;;;;;8.18;2.72;;;33.40;81.70;;;;;;5030408;28;20208;-71
2022/06/23 05:42:18;;;;;;;3.95;2.80;;;33.00;80.60;;;;;;5029165;28;20231;-71
2022/06/23 05:44:56;;;;;;;4.97;3.17;;;32.40;81.00;;;;;;5030430;28;20290;-72
2022/06/23 05:47:22;;;;;;;5.30;3.10;;;32.70;81.10;;;;;;5029248;28;20290;-71
2022/06/23 05:49:57;;;;;;;5.53;3.03;;;32.90;82.00;;;;;;5030029;28;20199;-71
2022/06/23 05:52:37;;;;;;;5.38;3.20;;;32.70;82.20;;;;;;5030243;28;20250;-71
2022/06/23 05:55:18;;;;;;;7.15;2.92;;;33.30;80.60;;;;;;5029208;28;20233;-71
2022/06/23 05:58:03;;;;;;;5.35;2.67;;;33.60;78.60;;;;;;5030536;28;20183;-71
2022/06/23 06:00:45;;;;;;;5.80;3.13;;;33.80;79.00;;;;;;5027767;28;20230;-72
2022/06/23 06:03:26;;;;;;;5.60;2.75;;;34.10;76.70;;;;;;5030481;28;20314;-71
2022/06/23 06:05:56;;;;;;;4.30;2.72;;;33.90;77.60;;;;;;5021565;28;20294;-72
2022/06/23 06:09:50;;;;;;;5.70;2.67;;;34.40;76.40;;;;;;5028652;28;20788;-71
2022/06/23 06:11:48;;;;;;;4.50;2.40;;;34.30;76.00;;;;;;5016532;28;20273;-70
2022/06/23 06:14:17;;;;;;;4.45;2.35;;;34.40;74.10;;;;;;5030329;28;20286;-71
2022/06/23 06:16:43;;;;;;;3.55;2.72;;;34.00;75.30;;;;;;5030030;28;20210;-70
2022/06/23 06:19:21;;;;;;;4.15;2.60;;;33.10;76.10;;;;;;5045153;28;20184;-72
2022/06/23 06:21:50;;;;;;;4.90;2.55;;;33.10;76.00;;;;;;5022704;28;20202;-72
2022/06/23 06:24:23;;;;;;;8.10;2.80;;;33.10;77.00;;;;;;5030237;28;20204;-71
2022/06/23 06:26:53;;;;;;;4.90;2.40;;;33.00;76.90;;;;;;5022585;28;20223;-71
2022/06/23 06:29:22;;;;;;;4.32;2.95;;;33.60;77.00;;;;;;5028681;28;20227;-71
2022/06/23 06:32:15;;;;;;;3.38;2.53;;;34.40;75.10;;;;;;5022395;28;20604;-71
2022/06/23 06:34:47;;;;;;;4.70;2.85;;;34.10;74.10;;;;;;5029568;28;20215;-71
2022/06/23 06:37:15;;;;;;;7.00;3.03;;;34.10;73.70;;;;;;5030408;28;20188;-71
2022/06/23 06:39:48;;;;;;;5.68;3.05;;;34.20;73.80;;;;;;5029903;28;20203;-71
2022/06/23 06:42:20;;;;;;;4.25;2.92;;;33.80;74.60;;;;;;5028860;28;20207;-72
2022/06/23 06:44:51;;;;;;;3.45;3.00;;;33.50;75.10;;;;;;5028268;28;20673;-71
2022/06/23 06:47:20;;;;;;;3.22;2.30;;;34.00;75.50;;;;;;5030204;28;20199;-71
2022/06/23 06:49:46;;;;;;;4.35;2.63;;;34.70;74.00;;;;;;5027261;28;20278;-71
2022/06/23 06:52:13;;;;;;;7.75;2.85;;;34.40;73.40;;;;;;5030341;28;20200;-70
2022/06/23 06:54:51;;;;;;;3.17;2.38;;;33.40;73.70;;;;;;5030809;28;20176;-71
2022/06/23 06:57:32;;;;;;;5.28;3.05;;;33.80;74.60;;;;;;5028502;28;20203;-71
2022/06/23 07:00:06;;;;;;;3.03;2.53;;;34.20;73.90;;;;;;5026750;28;20214;-71
2022/06/23 07:02:40;;;;;;;4.25;2.83;;;34.30;73.80;;;;;;5028290;28;20261;-71
2022/06/23 07:05:06;;;;;;;3.03;2.72;;;33.50;74.90;;;;;;5028197;28;20200;-72
2022/06/23 07:07:37;;;;;;;4.85;3.15;;;34.20;73.40;;;;;;5029094;28;20208;-71
2022/06/23 07:10:13;;;;;;;4.63;3.05;;;34.60;74.30;;;;;;5028832;28;20345;-72
2022/06/23 07:13:08;;;;;;;5.13;2.53;;;34.40;73.10;;;;;;5033186;28;20661;-72
2022/06/23 07:15:40;;;;;;;4.85;2.88;;;35.30;73.00;;;;;;5010450;28;20605;-71
2022/06/23 07:18:25;;;;;;;3.97;3.10;;;36.40;72.10;;;;;;5032626;28;20246;-71
2022/06/23 07:21:19;;;;;;;5.47;3.10;;;36.60;70.60;;;;;;5028674;28;20234;-71
2022/06/23 07:23:45;;;;;;;5.22;3.13;;;36.40;69.80;;;;;;5031835;28;20201;-71
2022/06/23 07:26:34;;;;;;;6.45;2.72;;;36.10;71.50;;;;;;5032743;28;20203;-71
2022/06/23 07:29:17;;;;;;;5.60;2.78;;;35.80;69.70;;;;;;5026766;28;20230;-71
2022/06/23 07:31:54;;;;;;;4.85;2.97;;;36.10;70.10;;;;;;5032041;28;20708;-71
2022/06/23 07:34:24;;;;;;;6.78;3.35;;;35.40;70.80;;;;;;5031491;28;20215;-71
2022/06/23 07:36:56;;;;;;;4.95;3.28;;;36.20;70.40;;;;;;5025937;28;20183;-71
2022/06/23 07:39:28;;;;;;;4.57;3.45;;;36.40;70.20;;;;;;5032400;28;20227;-72
2022/06/23 07:42:18;;;;;;;5.00;3.35;;;36.90;69.00;;;;;;5031970;28;20257;-72
2022/06/23 07:44:56;;;;;;;5.80;2.83;;;35.70;69.80;;;;;;5032915;28;20688;-72
2022/06/23 07:47:22;;;;;;;4.32;3.05;;;36.40;69.20;;;;;;5033190;28;20286;-71
2022/06/23 07:49:48;;;;;;;5.25;2.92;;;36.30;68.50;;;;;;5033074;28;20207;-72
2022/06/23 07:52:18;;;;;;;5.75;2.90;;;35.90;69.50;;;;;;5033231;28;20211;-72
2022/06/23 07:54:44;;;;;;;5.65;3.20;;;36.60;70.90;;;;;;5032528;28;20212;-71
2022/06/23 07:57:11;;;;;;;4.28;2.90;;;36.30;68.00;;;;;;5030960;28;20270;-73
2022/06/23 07:59:46;;;;;;;6.07;3.55;;;36.60;68.80;;;;;;5029985;28;20234;-71
2022/06/23 08:02:41;;;;;;;9.43;3.05;;;38.10;68.00;;;;;;5030840;28;20246;-72
2022/06/23 08:05:17;;;;;;;3.75;2.50;;;38.30;66.10;;;;;;5025137;28;20204;-71
2022/06/23 08:07:44;;;;;;;5.55;3.00;;;38.90;65.00;;;;;;5032069;28;20208;-71
2022/06/23 08:10:23;;;;;;;5.40;3.13;;;37.20;63.80;;;;;;5032006;28;20200;-71
2022/06/23 08:13:05;;;;;;;7.43;6.75;;;37.80;65.40;;;;;;5031350;28;20704;-72
2022/06/23 08:18:46;;;;;;;4.00;2.72;;;37.30;64.70;;;;;;5032502;28;20751;-71
2022/06/23 08:21:23;;;;;;;5.97;4.15;;;37.20;66.10;;;;;;5027212;28;20219;-72
2022/06/23 08:24:03;;;;;;;4.70;3.45;;;38.00;65.30;;;;;;5032639;28;20203;-73
2022/06/23 08:26:30;;;;;;;2.97;2.30;;;38.40;65.50;;;;;;5029674;28;20591;-71
2022/06/23 08:29:00;;;;;;;5.88;3.95;;;38.50;64.40;;;;;;5030391;28;20691;-73
2022/06/23 08:31:27;;;;;;;3.63;2.85;;;39.00;63.90;;;;;;5028889;28;20262;-72
2022/06/23 08:33:52;;;;;;;3.17;2.78;;;38.70;64.00;;;;;;5031155;28;20551;-72
2022/06/23 08:36:22;;;;;;;6.38;3.13;;;38.30;64.30;;;;;;5032048;28;20204;-71
2022/06/23 08:38:53;;;;;;;3.55;3.10;;;38.40;64.70;;;;;;5030492;28;20214;-71
2022/06/23 08:41:29;;;;;;;5.35;2.88;;;38.70;63.40;;;;;;5031660;28;20759;-71
2022/06/23 08:44:10;;;;;;;3.20;2.60;;;38.10;64.10;;;;;;5025202;28;20211;-74
2022/06/23 08:47:07;;;;;;;3.42;2.30;;;38.00;64.60;;;;;;5030475;28;20583;-71
2022/06/23 08:49:43;;;;;;;6.57;4.25;;;38.50;64.00;;;;;;5030869;28;20235;-71
2022/06/23 08:52:22;;;;;;;7.70;3.03;;;38.80;64.30;;;;;;5030189;28;20242;-71
2022/06/23 08:55:05;;;;;;;3.38;2.58;;;38.30;62.70;;;;;;5027464;28;20180;-71
2022/06/23 08:57:45;;;;;;;7.95;2.65;;;37.80;62.80;;;;;;5031572;28;20586;-71
2022/06/23 09:00:20;;;;;;;4.38;2.45;;;37.70;64.40;;;;;;5030894;28;20739;-71
2022/06/23 09:03:03;;;;;;;3.47;2.35;;;37.30;63.20;;;;;;5023967;28;20225;-73
2022/06/23 09:05:57;;;;;;;4.47;2.58;;;37.10;64.40;;;;;;5044111;28;20300;-72
2022/06/23 09:08:27;;;;;;;23.88;9.65;;;37.40;63.00;;;;;;5023845;28;20227;-76
2022/06/23 09:11:00;;;;;;;4.25;2.67;;;37.50;65.00;;;;;;5030177;28;20211;-73
2022/06/23 09:13:44;;;;;;;5.68;3.67;;;37.30;62.60;;;;;;5028320;28;20215;-72
2022/06/23 09:16:21;;;;;;;13.95;4.32;;;37.50;63.50;;;;;;5033441;28;20199;-72
2022/06/23 09:19:04;;;;;;;5.18;2.60;;;37.60;64.80;;;;;;5022829;28;20221;-72
2022/06/23 09:21:38;;;;;;;6.82;3.10;;;37.00;63.70;;;;;;5031471;28;20226;-70
2022/06/23 09:24:28;;;;;;;5.25;3.17;;;36.90;64.30;;;;;;5031003;28;20239;-74
2022/06/23 09:26:59;;;;;;;3.70;2.17;;;35.70;64.10;;;;;;5024345;28;20215;-73
2022/06/23 09:29:34;;;;;;;3.05;2.40;;;35.90;64.50;;;;;;5030702;28;20781;-73
2022/06/23 09:32:04;;;;;;;4.43;3.15;;;34.40;63.40;;;;;;5030969;28;20215;-72
2022/06/23 09:34:54;;;;;;;3.40;3.03;;;33.40;66.00;;;;;;5030401;28;20234;-73
2022/06/23 09:37:28;;;;;;;5.55;3.00;;;33.70;67.30;;;;;;5030652;28;20215;-73
2022/06/23 09:40:26;;;;;;;37.42;25.30;;;33.40;67.50;;;;;;5009693;28;20211;-72
2022/06/23 09:43:12;;;;;;;3.55;2.50;;;34.40;68.80;;;;;;5010011;28;20303;-73
2022/06/23 09:46:15;;;;;;;4.13;2.75;;;34.70;67.60;;;;;;5019637;28;20561;-75
2022/06/23 09:48:40;;;;;;;5.57;3.53;;;33.70;66.90;;;;;;5028492;28;21613;-74
2022/06/23 09:51:37;;;;;;;3.25;2.15;;;34.00;67.50;;;;;;5029411;28;20704;-74
2022/06/23 09:54:36;;;;;;;11.25;5.88;;;34.00;68.70;;;;;;5025081;28;20266;-73
2022/06/23 09:57:30;;;;;;;7.45;3.80;;;34.40;67.50;;;;;;5024643;28;20210;-72
2022/06/23 10:00:19;;;;;;;7.30;5.45;;;34.60;67.80;;;;;;5026956;28;20204;-73
2022/06/23 10:03:16;;;;;;;2.67;2.22;;;34.50;65.60;;;;;;5029833;28;20235;-72
2022/06/23 10:06:05;;;;;;;2.88;2.13;;;33.00;66.30;;;;;;5030198;28;20196;-74
2022/06/23 10:08:36;;;;;;;3.80;2.40;;;31.50;67.60;;;;;;5030011;28;20210;-72
2022/06/23 10:11:29;;;;;;;3.08;2.17;;;30.70;68.80;;;;;;5024192;28;20584;-74
2022/06/23 10:14:26;;;;;;;4.57;1.98;;;30.60;68.40;;;;;;5030139;28;20212;-75
2022/06/23 10:17:33;;;;;;;3.45;2.40;;;30.20;70.10;;;;;;5023302;28;20581;-70
2022/06/23 10:20:10;;;;;;;4.18;2.17;;;30.80;71.10;;;;;;5021829;28;20216;-70
2022/06/23 10:22:55;;;;;;;4.43;2.30;;;31.00;70.00;;;;;;5028416;28;20580;-71
2022/06/23 10:25:44;;;;;;;4.75;2.30;;;30.70;70.10;;;;;;5028104;28;20223;-71
2022/06/23 10:28:54;;;;;;;5.32;2.60;;;30.70;69.20;;;;;;5028182;28;20207;-70
2022/06/23 10:31:44;;;;;;;9.63;3.35;;;31.10;68.70;;;;;;5029668;28;20258;-71
2022/06/23 10:34:41;;;;;;;13.95;3.75;;;31.90;71.70;;;;;;5025591;28;20173;-71
2022/06/23 10:37:12;;;;;;;3.30;2.10;;;32.80;71.20;;;;;;5025088;28;20207;-71
2022/06/23 10:39:48;;;;;;;6.10;2.28;;;32.50;69.20;;;;;;5030202;28;20246;-71
2022/06/23 10:42:52;;;;;;;2.60;2.00;;;32.00;67.50;;;;;;5030122;28;20215;-71
2022/06/23 10:45:40;;;;;;;3.65;2.00;;;31.40;69.50;;;;;;5027345;28;20212;-71
2022/06/23 10:48:18;;;;;;;4.88;2.40;;;31.80;68.50;;;;;;5031442;28;20222;-71
2022/06/23 10:50:54;;;;;;;6.30;2.85;;;31.20;69.60;;;;;;5033299;28;20210;-71
2022/06/23 10:53:45;;;;;;;7.65;3.25;;;31.00;70.40;;;;;;5033453;28;20255;-71
2022/06/23 10:56:31;;;;;;;6.82;3.05;;;30.70;72.10;;;;;;5032018;28;20307;-71
2022/06/23 10:59:05;;;;;;;13.88;6.45;;;30.10;72.60;;;;;;5026514;28;20273;-71
2022/06/23 11:02:08;;;;;;;9.02;4.93;;;30.50;78.70;;;;;;5032784;28;20219;-73
2022/06/23 11:04:49;;;;;;;5.13;3.50;;;31.20;79.30;;;;;;5033100;28;20208;-72
2022/06/23 11:07:28;;;;;;;4.18;2.72;;;31.50;74.30;;;;;;5031065;28;20208;-72
2022/06/23 11:10:06;;;;;;;3.50;2.35;;;31.40;69.70;;;;;;5026082;28;20206;-70
2022/06/23 11:12:43;;;;;;;3.83;2.42;;;30.60;69.50;;;;;;5033470;28;20212;-71
2022/06/23 11:15:29;;;;;;;3.28;2.10;;;30.10;70.20;;;;;;5031879;28;20285;-70
2022/06/23 11:18:06;;;;;;;3.47;2.05;;;30.40;70.50;;;;;;4999486;28;20628;-72
2022/06/23 11:21:01;;;;;;;4.60;4.13;;;30.50;70.70;;;;;;5032939;28;20290;-72
2022/06/23 11:23:45;;;;;;;4.03;2.40;;;31.00;70.80;;;;;;5032898;28;20212;-74
2022/06/23 11:26:45;;;;;;;4.38;2.00;;;31.50;70.10;;;;;;5032824;28;20204;-74
2022/06/23 11:29:21;;;;;;;7.80;6.28;;;31.70;70.00;;;;;;5028545;28;20282;-75
2022/06/23 11:31:47;;;;;;;5.15;3.13;;;31.90;69.50;;;;;;5025404;28;20647;-74
2022/06/23 11:34:31;;;;;;;4.72;3.30;;;31.90;68.70;;;;;;5032891;28;20319;-74
2022/06/23 11:37:25;;;;;;;5.25;2.55;;;32.00;69.30;;;;;;5024668;28;20176;-74
2022/06/23 11:40:13;;;;;;;3.33;2.47;;;32.00;69.70;;;;;;5032348;28;20196;-74
2022/06/23 11:43:12;;;;;;;8.50;3.05;;;32.00;68.80;;;;;;5032814;28;20511;-73
2022/06/23 11:45:46;;;;;;;9.23;7.15;;;32.40;70.40;;;;;;5032558;28;20224;-74
2022/06/23 11:48:43;;;;;;;6.07;4.93;;;32.50;68.60;;;;;;5030833;28;20700;-72
2022/06/23 11:51:18;;;;;;;4.78;2.05;;;32.20;68.10;;;;;;5063697;22;20231;-74
2022/06/23 11:53:46;;;;;;;3.58;1.95;;;31.40;68.10;;;;;;5060444;28;20260;-73
2022/06/23 11:56:14;;;;;;;3.03;2.08;;;31.30;68.90;;;;;;5038468;28;20204;-73
2022/06/23 11:58:49;;;;;;;4.18;2.03;;;30.80;68.40;;;;;;5036782;28;20230;-74
2022/06/23 12:01:21;;;;;;;2.30;2.00;;;30.60;68.90;;;;;;5055103;28;20684;-74
2022/06/23 12:04:05;;;;;;;3.33;2.60;;;30.60;69.40;;;;;;5047359;28;20263;-74
2022/06/23 12:06:56;;;;;;;5.10;2.28;;;30.40;69.90;;;;;;5035963;28;20212;-73
2022/06/23 12:09:43;;;;;;;4.57;2.30;;;30.40;69.90;;;;;;5051087;28;20253;-74
2022/06/23 12:12:08;;;;;;;3.80;1.92;;;30.30;70.00;;;;;;5053939;28;20219;-73
2022/06/23 12:14:36;;;;;;;3.20;1.75;;;30.20;69.70;;;;;;5053867;28;20629;-74
2022/06/23 12:17:32;;;;;;;4.53;2.03;;;30.20;69.60;;;;;;5054356;28;20696;-74
2022/06/23 12:20:12;;;;;;;6.53;1.95;;;30.20;69.90;;;;;;5050943;28;20231;-74
2022/06/23 12:22:40;;;;;;;5.78;3.50;;;30.40;70.40;;;;;;5042565;28;20203;-74
2022/06/23 12:25:21;;;;;;;7.00;2.05;;;30.70;71.40;;;;;;5053815;28;20206;-74
2022/06/23 12:28:14;;;;;;;8.77;4.45;;;30.60;70.20;;;;;;5030029;28;20202;-74
2022/06/23 12:30:59;;;;;;;6.95;2.80;;;30.30;71.60;;;;;;5064964;28;20235;-74
2022/06/23 12:33:34;;;;;;;3.88;2.42;;;30.10;71.30;;;;;;5049528;28;20216;-75
2022/06/23 12:36:35;;;;;;;4.03;2.22;;;30.00;71.50;;;;;;5035410;28;20219;-75
2022/06/23 12:39:26;;;;;;;4.20;2.92;;;30.00;71.50;;;;;;5046534;28;20234;-75
2022/06/23 12:41:58;;;;;;;4.43;2.83;;;29.80;71.60;;;;;;5025764;28;20219;-75
2022/06/23 12:44:49;;;;;;;7.50;4.10;;;29.70;71.50;;;;;;5052940;28;20208;-74
2022/06/23 12:47:47;;;;;;;8.32;2.42;;;29.70;71.50;;;;;;5040871;28;20217;-73
2022/06/23 12:50:31;;;;;;;3.22;2.15;;;29.50;71.50;;;;;;5048225;28;20739;-74
2022/06/23 12:53:32;;;;;;;8.45;6.45;;;29.40;72.20;;;;;;5048483;28;20357;-75
2022/06/23 12:56:16;;;;;;;5.03;3.67;;;29.60;72.40;;;;;;5035250;28;20764;-74
2022/06/23 12:58:50;;;;;;;4.40;3.38;;;29.80;72.30;;;;;;5052435;28;20243;-74
2022/06/23 13:01:37;;;;;;;2.70;2.10;;;29.90;71.90;;;;;;5035223;28;20691;-74
2022/06/23 13:04:16;;;;;;;5.30;2.50;;;29.70;70.80;;;;;;5058778;28;20210;-75
2022/06/23 13:07:09;;;;;;;6.15;3.05;;;29.90;71.90;;;;;;5057410;28;20569;-74
2022/06/23 13:10:13;;;;;;;5.63;3.65;;;29.80;71.20;;;;;;5051749;28;20290;-74
2022/06/23 13:13:12;;;;;;;3.47;2.10;;;29.80;72.00;;;;;;5053245;28;20210;-74
2022/06/23 13:15:50;;;;;;;5.13;2.40;;;29.80;72.10;;;;;;5026608;28;20211;-75
2022/06/23 13:18:28;;;;;;;10.32;3.95;;;29.80;72.30;;;;;;5039163;28;20270;-74
2022/06/23 13:21:14;;;;;;;5.80;2.30;;;29.80;72.50;;;;;;5050970;28;20208;-73
2022/06/23 13:23:53;;;;;;;2.00;1.80;;;29.80;72.00;;;;;;5053327;28;20615;-74
2022/06/23 13:26:33;;;;;;;6.13;2.08;;;29.80;71.60;;;;;;5039512;28;20219;-75
2022/06/23 13:29:18;;;;;;;2.78;2.10;;;29.90;71.60;;;;;;5046689;28;20208;-74
2022/06/23 13:32:00;;;;;;;3.28;2.00;;;29.60;72.20;;;;;;5052635;28;20221;-74
2022/06/23 13:34:32;;;;;;;7.03;2.30;;;29.80;73.10;;;;;;5044939;28;20200;-74
2022/06/23 13:37:19;;;;;;;4.53;2.53;;;29.80;73.20;;;;;;5052995;28;20180;-73
2022/06/23 13:40:03;;;;;;;8.02;2.88;;;29.60;73.70;;;;;;5038128;28;20190;-74
2022/06/23 13:42:43;;;;;;;5.05;2.35;;;29.60;73.30;;;;;;5055757;28;20207;-74
2022/06/23 13:45:44;;;;;;;3.72;2.00;;;29.60;73.20;;;;;;5048546;28;20212;-74
2022/06/23 13:48:34;;;;;;;4.40;2.70;;;29.80;73.40;;;;;;5050822;28;20218;-75
2022/06/23 13:51:21;;;;;;;3.13;1.98;;;29.90;72.60;;;;;;5035190;28;20227;-75
2022/06/23 13:53:47;;;;;;;3.35;2.25;;;29.70;72.70;;;;;;5045158;28;20199;-75
2022/06/23 13:56:46;;;;;;;2.90;1.73;;;29.70;72.40;;;;;;5052381;28;20233;-74
2022/06/23 13:59:21;;;;;;;2.38;1.98;;;29.70;72.30;;;;;;5028712;28;20207;-73
2022/06/23 14:01:56;;;;;;;5.90;2.50;;;29.60;71.60;;;;;;5039746;28;20211;-75